Data for 02/10/2007

Time Sea-Level Adjusted Pressure Absolute Pressure Temperature Relative Humidity Dew Point   
(mb) (inHg) (mb) (inHg) (C) (F) (%) (C) (F)
00:05 1019 30.09 848 25.04 -3.8 25.1 95 -4.6 23.8
00:10 1019 30.09 848 25.04 -4.1 24.6 96 -4.7 23.6
00:15 1019 30.09 848 25.04 -4.1 24.7 96 -4.6 23.7
00:20 1019 30.09 848 25.04 -4.1 24.6 96 -4.6 23.7
00:25 1019 30.09 848 25.04 -4.1 24.7 97 -4.6 23.8
00:30 1019 30.09 848 25.04 -3.9 24.9 97 -4.4 24.1
00:35 1019 30.09 848 25.04 -3.9 25 96 -4.4 24.1
00:40 1019 30.09 848 25.04 -3.9 25 96 -4.4 24.1
00:45 1019 30.09 848 25.04 -3.9 25 96 -4.4 24.2
00:50 1019 30.09 848 25.04 -3.8 25.2 97 -4.2 24.4
00:55 1019 30.09 848 25.04 -3.7 25.3 96 -4.3 24.3
01:00 1019 30.09 848 25.04 -3.7 25.3 96 -4.3 24.3
01:05 1019 30.09 848 25.04 -3.7 25.3 96 -4.2 24.4
01:10 1019 30.09 848 25.04 -3.7 25.3 96 -4.2 24.4
01:15 1019 30.09 848 25.04 -3.7 25.4 96 -4.2 24.5
01:20 1019 30.09 848 25.04 -3.5 25.7 96 -4.1 24.7
01:25 1019 30.09 848 25.04 -3.4 25.8 96 -4 24.8
01:30 1019 30.09 848 25.04 -3.4 25.9 96 -4 24.8
01:35 1019 30.09 848 25.04 -3.2 26.2 96 -3.8 25.1
01:40 1019 30.09 848 25.04 -3 26.6 95 -3.8 25.2
01:45 1019 30.09 848 25.04 -3 26.6 93 -3.9 25
01:50 1019 30.09 848 25.04 -3.1 26.3 93 -4.1 24.7
01:55 1019 30.09 848 25.04 -3.3 26 95 -4 24.7
02:00 1019 30.09 848 25.04 -3.2 26.2 94 -4 24.8
02:05 1019 30.09 848 25.04 -3.3 26.1 93 -4.2 24.4
02:10 1019 30.09 848 25.04 -3.4 26 93 -4.3 24.2
02:15 1019 30.09 848 25.04 -3.5 25.7 93 -4.5 23.9
02:20 1019 30.09 848 25.04 -3.7 25.4 92 -4.7 23.5
02:25 1019 30.09 848 25.04 -3.9 24.9 92 -5 23
02:30 1019 30.09 848 25.04 -4.4 24.1 94 -5.2 22.7
02:35 1019 30.09 848 25.04 -4.6 23.8 94 -5.4 22.2
02:40 1019 30.09 848 25.04 -4.7 23.5 95 -5.4 22.2
02:45 1019 30.09 848 25.04 -4.9 23.2 95 -5.6 21.9
02:50 1019 30.09 848 25.04 -5.1 22.8 96 -5.7 21.7
02:55 1019 30.09 848 25.04 -5 23 95 -5.7 21.8
03:00 1019 30.09 849 25.07 -4.9 23.1 96 -5.6 22
03:05 1019 30.09 849 25.07 -4.9 23.2 95 -5.5 22
03:10 1019 30.09 849 25.07 -5 22.9 96 -5.6 21.9
03:15 1019 30.09 849 25.07 -4.9 23.1 96 -5.5 22
03:20 1020 30.12 849 25.07 -4.9 23.2 95 -5.5 22
03:25 1019 30.09 849 25.07 -5 23 95 -5.7 21.8
03:30 1019 30.09 849 25.07 -5.2 22.6 96 -5.8 21.5
03:35 1019 30.09 849 25.07 -5.3 22.4 96 -5.8 21.5
03:40 1019 30.09 848 25.04 -5.3 22.5 97 -5.8 21.6
03:45 1019 30.09 848 25.04 -5.3 22.4 97 -5.8 21.6
03:50 1019 30.09 848 25.04 -5.3 22.5 97 -5.7 21.7
03:55 1019 30.09 848 25.04 -5.2 22.7 97 -5.6 21.9
04:00 1019 30.09 848 25.04 -5.2 22.6 97 -5.6 21.8
04:05 1019 30.09 848 25.04 -5.2 22.7 97 -5.6 21.9
04:10 1019 30.09 848 25.04 -5.2 22.6 97 -5.7 21.8
04:15 1019 30.09 848 25.04 -5.4 22.4 97 -5.8 21.6
04:20 1019 30.09 848 25.04 -5.5 22.2 97 -5.8 21.5
04:25 1019 30.09 848 25.04 -5.5 22.1 98 -5.8 21.5
04:30 1019 30.09 848 25.04 -5.5 22.1 98 -5.8 21.5
04:35 1019 30.09 848 25.04 -5.5 22.2 98 -5.7 21.7
04:40 1019 30.09 848 25.04 -5.5 22.1 98 -5.8 21.6
04:45 1018 30.06 848 25.04 -5.4 22.3 98 -5.7 21.8
04:50 1018 30.06 848 25.04 -5.3 22.4 98 -5.6 21.9
04:55 1018 30.06 848 25.04 -5.2 22.6 98 -5.5 22.1
05:00 1018 30.06 848 25.04 -5.2 22.6 97 -5.6 21.9
05:05 1018 30.06 848 25.04 -5.3 22.5 97 -5.7 21.8
05:10 1018 30.06 848 25.04 -5.3 22.5 97 -5.7 21.7
05:15 1018 30.06 847 25.01 -5.2 22.6 97 -5.7 21.8
05:20 1018 30.06 847 25.01 -5.2 22.6 97 -5.7 21.8
05:25 1018 30.06 847 25.01 -5.2 22.6 96 -5.7 21.7
05:30 1018 30.06 847 25.01 -5.3 22.5 97 -5.7 21.7
05:35 1018 30.06 847 25.01 -5.4 22.3 97 -5.9 21.4
05:40 1018 30.06 847 25.01 -5.3 22.4 98 -5.6 21.9
05:45 1018 30.06 847 25.01 -4.8 23.3 97 -5.2 22.6
05:50 1018 30.06 847 25.01 -4.6 23.7 98 -4.9 23.1
05:55 1018 30.06 847 25.01 -4.5 24 96 -5 23
06:00 1018 30.06 847 25.01 -4.4 24.1 96 -4.9 23.2
06:05 1018 30.06 847 25.01 -4.3 24.4 97 -4.7 23.6
06:10 1018 30.06 847 25.01 -3.8 25.2 97 -4.2 24.4
06:15 1018 30.06 847 25.01 -3.8 25.2 96 -4.3 24.3
06:20 1018 30.06 847 25.01 -3.8 25.2 96 -4.3 24.2
06:25 1018 30.06 847 25.01 -3.9 24.9 95 -4.6 23.8
06:30 1018 30.06 847 25.01 -3.9 24.9 96 -4.5 23.9
06:35 1018 30.06 847 25.01 -3.8 25.1 96 -4.4 24
06:40 1018 30.06 847 25.01 -3.6 25.5 96 -4.1 24.5
06:45 1018 30.06 847 25.01 -3.4 25.8 96 -4 24.8
06:50 1018 30.06 847 25.01 -3.5 25.7 95 -4.2 24.4
06:55 1018 30.06 847 25.01 -3.9 25 94 -4.7 23.5
07:00 1018 30.06 847 25.01 -4.1 24.6 96 -4.6 23.7
07:05 1018 30.06 847 25.01 -3.7 25.4 96 -4.2 24.4
07:10 1018 30.06 847 25.01 -3.5 25.8 96 -4 24.8
07:15 1018 30.06 847 25.01 -3.4 25.9 95 -4.1 24.7
07:20 1018 30.06 847 25.01 -3.3 26 95 -4 24.7
07:25 1018 30.06 847 25.01 -3.3 26.1 94 -4.1 24.7
07:30 1018 30.06 847 25.01 -3.3 26 93 -4.3 24.3
07:35 1018 30.06 847 25.01 -3.6 25.5 93 -4.5 23.9
07:40 1018 30.06 847 25.01 -3.6 25.5 94 -4.4 24
07:45 1018 30.06 847 25.01 -3.6 25.5 92 -4.8 23.4
07:50 1018 30.06 847 25.01 -3.7 25.3 92 -4.8 23.3
07:55 1018 30.06 847 25.01 -4 24.7 89 -5.6 21.9
08:00 1018 30.06 847 25.01 -4.9 23.1 91 -6.2 20.8
08:05 1018 30.06 847 25.01 -5.1 22.9 93 -6.1 21.1
08:10 1018 30.06 847 25.01 -4.8 23.4 92 -5.9 21.4
08:15 1017 30.03 847 25.01 -4.6 23.8 92 -5.7 21.7
08:20 1017 30.03 847 25.01 -4.2 24.4 91 -5.5 22.1
08:25 1017 30.03 847 25.01 -4 24.8 93 -4.9 23.2
08:30 1017 30.03 847 25.01 -3.8 25.1 93 -4.9 23.3
08:35 1017 30.03 847 25.01 -3.8 25.2 92 -4.8 23.3
08:40 1018 30.06 847 25.01 -3.4 26 93 -4.4 24.1
08:45 1018 30.06 847 25.01 -2.4 27.6 88 -4.1 24.6
08:50 1018 30.06 847 25.01 -1.7 29 82 -4.3 24.3
08:55 1018 30.06 847 25.01 -0.8 30.6 78 -4.2 24.5
09:00 1018 30.06 847 25.01 -0.5 31.2 77 -4.1 24.6
09:05 1018 30.06 847 25.01 -1 30.2 79 -4.2 24.5
09:10 1018 30.06 847 25.01 -1.1 30.1 80 -4.1 24.6
09:15 1018 30.06 847 25.01 0.1 32.2 75 -3.9 25
09:20 1018 30.06 847 25.01 0.7 33.3 73 -3.6 25.5
09:25 1018 30.06 847 25.01 1 33.8 72 -3.5 25.6
09:30 1018 30.06 847 25.01 1.1 34 72 -3.5 25.8
09:35 1018 30.06 847 25.01 0.9 33.6 73 -3.4 25.9
09:40 1018 30.06 847 25.01 0.5 32.8 77 -3.1 26.3
09:45 1018 30.06 847 25.01 0.4 32.8 75 -3.4 25.8
09:50 1018 30.06 847 25.01 -0.2 31.6 79 -3.4 25.8
09:55 1018 30.06 847 25.01 -0.3 31.4 79 -3.6 25.6
10:00 1018 30.06 847 25.01 0.2 32.4 70 -4.6 23.8
10:05 1018 30.06 847 25.01 0.9 33.6 65 -4.9 23.1
10:10 1018 30.06 847 25.01 0.4 32.7 69 -4.7 23.6
10:15 1018 30.06 847 25.01 0.2 32.4 67 -5.1 22.8
10:20 1018 30.06 847 25.01 0.4 32.7 66 -5.2 22.7
10:25 1018 30.06 847 25.01 0.3 32.5 67 -5.1 22.7
10:30 1018 30.06 847 25.01 -0.2 31.7 70 -5.1 22.9
10:35 1018 30.06 847 25.01 -0.9 30.3 74 -5 23
10:40 1018 30.06 847 25.01 -1.2 29.8 75 -5 23
10:45 1018 30.06 847 25.01 -1.6 29.1 78 -5 23
10:50 1018 30.06 847 25.01 -0.8 30.5 72 -5.3 22.4
10:55 1018 30.06 847 25.01 0 32.1 70 -4.8 23.3
11:00 1018 30.06 847 25.01 0 32.1 72 -4.4 24.1
11:05 1018 30.06 847 25.01 -0.6 30.9 75 -4.6 23.8
11:10 1018 30.06 847 25.01 -1.4 29.5 82 -4.1 24.7
11:15 1017 30.03 847 25.01 -1.7 28.9 82 -4.3 24.2
11:20 1017 30.03 847 25.01 -1.4 29.4 82 -4.1 24.6
11:25 1017 30.03 847 25.01 -0.7 30.7 80 -3.8 25.1
11:30 1017 30.03 847 25.01 -0.2 31.6 78 -3.6 25.5
11:35 1017 30.03 846 24.98 1 33.8 72 -3.4 25.8
11:40 1017 30.03 846 24.98 1.7 35.1 69 -3.3 26
11:45 1017 30.03 846 24.98 3 37.5 64 -3.1 26.4
11:50 1017 30.03 846 24.98 3.7 38.7 61 -3 26.6
11:55 1017 30.03 846 24.98 3.6 38.5 64 -2.6 27.4
12:00 1017 30.03 846 24.98 2.7 36.9 68 -2.7 27.2
12:05 1017 30.03 846 24.98 3.4 38.2 61 -3.4 25.9
12:10 1017 30.03 846 24.98 3.5 38.4 62 -3 26.6
12:15 1017 30.03 846 24.98 3 37.3 61 -3.7 25.3
12:20 1017 30.03 846 24.98 3.2 37.7 61 -3.7 25.4
12:25 1017 30.03 846 24.98 2.7 36.9 62 -3.8 25.2
12:30 1017 30.03 846 24.98 2.7 36.9 60 -4.3 24.3
12:35 1017 30.03 846 24.98 3.5 38.4 57 -4.1 24.6
12:40 1016 30 846 24.98 3.6 38.4 59 -3.8 25.2
12:45 1016 30 846 24.98 3.3 38 59 -3.8 25.1
12:50 1016 30 845 24.95 2.9 37.1 62 -3.8 25.2
12:55 1016 30 845 24.95 3.2 37.8 59 -4.1 24.7
13:00 1016 30 845 24.95 3.5 38.3 60 -3.5 25.8
13:05 1016 30 845 24.95 4.2 39.6 56 -3.8 25.2
13:10 1016 30 845 24.95 5.1 41.2 54 -3.5 25.8
13:15 1016 30 845 24.95 5.3 41.6 54 -3.3 26
13:20 1016 30 845 24.95 5 41 56 -3 26.5
13:25 1015 29.97 845 24.95 5 41.1 55 -3.3 26
13:30 1015 29.97 845 24.95 5.5 41.9 53 -3.3 26.1
13:35 1015 29.97 845 24.95 5.6 42.1 53 -3.2 26.3
13:40 1015 29.97 845 24.95 5.7 42.3 52 -3.2 26.2
13:45 1015 29.97 845 24.95 5.7 42.2 52 -3.4 25.8
13:50 1015 29.97 844 24.92 5.6 42.2 53 -3.1 26.5
13:55 1015 29.97 844 24.92 5 41 55 -3.2 26.2
14:00 1015 29.97 844 24.92 5 40.9 54 -3.6 25.5
14:05 1015 29.97 844 24.92 4.7 40.5 53 -4 24.9
14:10 1015 29.97 844 24.92 4.2 39.5 54 -4.2 24.5
14:15 1015 29.97 844 24.92 4.3 39.7 54 -4.3 24.3
14:20 1015 29.97 844 24.92 4.4 39.9 54 -4.1 24.7
14:25 1015 29.97 844 24.92 4 39.2 58 -3.5 25.6
14:30 1015 29.97 844 24.92 3.7 38.7 60 -3.4 25.9
14:35 1015 29.97 844 24.92 4.4 39.9 56 -3.5 25.7
14:40 1015 29.97 844 24.92 4.8 40.7 56 -3.2 26.2
14:45 1015 29.97 844 24.92 4.8 40.6 56 -3.3 26
14:50 1014 29.94 844 24.92 4.7 40.4 56 -3.3 26
14:55 1014 29.94 844 24.92 4.8 40.6 56 -3.3 26
15:00 1014 29.94 844 24.92 3.7 38.7 60 -3.2 26.2
15:05 1014 29.94 843 24.89 3.7 38.7 60 -3.4 25.9
15:10 1014 29.94 843 24.89 4.1 39.3 58 -3.4 25.9
15:15 1014 29.94 843 24.89 3.9 39 59 -3.4 25.9
15:20 1014 29.94 843 24.89 4 39.2 58 -3.5 25.8
15:25 1014 29.94 843 24.89 3.7 38.7 61 -3 26.5
15:30 1014 29.94 843 24.89 3.7 38.6 62 -2.9 26.7
15:35 1014 29.94 843 24.89 3.6 38.5 63 -2.7 27.1
15:40 1014 29.94 843 24.89 3.3 38 63 -3 26.6
15:45 1014 29.94 843 24.89 3.3 38 64 -2.9 26.8
15:50 1014 29.94 843 24.89 3.7 38.6 63 -2.8 27
15:55 1014 29.94 843 24.89 3.7 38.6 64 -2.6 27.4
16:00 1014 29.94 843 24.89 3.4 38.2 64 -2.7 27.1
16:05 1014 29.94 843 24.89 3.2 37.8 65 -2.8 27
16:10 1014 29.94 843 24.89 3 37.5 65 -3 26.7
16:15 1014 29.94 843 24.89 2.8 37.1 66 -2.8 27
16:20 1014 29.94 843 24.89 2.9 37.3 65 -3 26.6
16:25 1014 29.94 843 24.89 3 37.3 64 -3.2 26.2
16:30 1014 29.94 843 24.89 2.7 36.9 66 -3.1 26.5
16:35 1014 29.94 843 24.89 2.7 36.9 65 -3.2 26.2
16:40 1014 29.94 843 24.89 2.5 36.4 67 -3.1 26.5
16:45 1014 29.94 843 24.89 2.3 36.1 67 -3.3 26.1
16:50 1014 29.94 843 24.89 2.1 35.7 69 -3 26.6
16:55 1013 29.91 843 24.89 1.9 35.3 69 -3.2 26.2
17:00 1013 29.91 843 24.89 1.7 35.1 70 -3.1 26.4
17:05 1013 29.91 843 24.89 1.7 35.1 69 -3.4 25.9
17:10 1013 29.91 843 24.89 1.7 35.1 68 -3.6 25.4
17:15 1013 29.91 843 24.89 1.8 35.2 69 -3.2 26.2
17:20 1013 29.91 843 24.89 1.5 34.7 70 -3.3 26
17:25 1013 29.91 842 24.86 1.6 34.8 70 -3.2 26.2
17:30 1013 29.91 842 24.86 1.8 35.3 70 -3.1 26.3
17:35 1013 29.91 842 24.86 1.5 34.7 72 -3 26.7
17:40 1013 29.91 842 24.86 1 33.8 74 -3.2 26.3
17:45 1013 29.91 842 24.86 0.8 33.4 74 -3.3 26
17:50 1013 29.91 842 24.86 0.8 33.4 75 -3.1 26.4
17:55 1013 29.91 842 24.86 0.6 33.2 76 -3.1 26.5
18:00 1013 29.91 842 24.86 0.5 33 78 -2.9 26.8
18:05 1013 29.91 842 24.86 0.3 32.5 81 -2.7 27.2
18:10 1013 29.91 842 24.86 -0.2 31.6 81 -3.1 26.5
18:15 1013 29.91 842 24.86 -0 32 78 -3.4 25.9
18:20 1013 29.91 842 24.86 0.4 32.8 76 -3.4 25.9
18:25 1013 29.91 842 24.86 0.8 33.4 75 -3.1 26.3
18:30 1013 29.91 842 24.86 0.7 33.2 75 -3.2 26.3
18:35 1013 29.91 842 24.86 0.7 33.2 75 -3.3 26.1
18:40 1013 29.91 842 24.86 0.8 33.4 76 -2.9 26.8
18:45 1013 29.91 842 24.86 0.8 33.4 79 -2.5 27.5
18:50 1012 29.88 842 24.86 0.7 33.3 79 -2.6 27.4
18:55 1012 29.88 842 24.86 0.6 33.1 80 -2.5 27.5
19:00 1012 29.88 842 24.86 0.4 32.7 80 -2.7 27.1
19:05 1012 29.88 842 24.86 0.3 32.5 81 -2.6 27.3
19:10 1012 29.88 842 24.86 0.2 32.4 80 -2.8 27
19:15 1012 29.88 841 24.83 0.1 32.2 80 -2.9 26.8
19:20 1012 29.88 841 24.83 -0 31.9 79 -3.2 26.2
19:25 1012 29.88 841 24.83 -0.2 31.6 80 -3.2 26.3
19:30 1012 29.88 841 24.83 -0.2 31.7 79 -3.4 25.8
19:35 1012 29.88 841 24.83 -0.5 31 79 -3.8 25.1
19:40 1012 29.88 841 24.83 -0.8 30.6 79 -4 24.8
19:45 1012 29.88 841 24.83 -1 30.3 78 -4.4 24.1
19:50 1012 29.88 841 24.83 -0.2 31.6 74 -4.3 24.3
19:55 1012 29.88 841 24.83 0.3 32.6 71 -4.3 24.2
20:00 1012 29.88 841 24.83 0.5 32.9 73 -3.8 25.2
20:05 1012 29.88 841 24.83 0.4 32.7 75 -3.6 25.5
20:10 1011 29.85 841 24.83 0.1 32.3 75 -3.8 25.2
20:15 1011 29.85 841 24.83 0.1 32.2 73 -4.1 24.6
20:20 1011 29.85 841 24.83 0.2 32.4 71 -4.4 24.1
20:25 1011 29.85 841 24.83 0.2 32.3 73 -4.2 24.4
20:30 1011 29.85 841 24.83 0.2 32.3 73 -4.1 24.7
20:35 1011 29.85 841 24.83 -0 32 76 -3.8 25.1
20:40 1011 29.85 840 24.81 -0.1 31.9 75 -3.9 25
20:45 1011 29.85 840 24.81 0 32.1 76 -3.6 25.4
20:50 1011 29.85 840 24.81 0 32.1 75 -3.9 24.9
20:55 1011 29.85 840 24.81 0.2 32.3 73 -4 24.8
21:00 1011 29.85 840 24.81 0.1 32.2 73 -4.1 24.6
21:05 1011 29.85 840 24.81 -0.1 31.8 75 -4 24.9
21:10 1011 29.85 840 24.81 -0.3 31.4 74 -4.4 24.1
21:15 1011 29.85 840 24.81 -0.3 31.4 75 -4.2 24.5
21:20 1011 29.85 840 24.81 -0.3 31.5 75 -4.1 24.6
21:25 1011 29.85 840 24.81 -0.3 31.5 76 -4 24.7
21:30 1011 29.85 840 24.81 -0.1 31.7 75 -4 24.9
21:35 1011 29.85 840 24.81 0 32 74 -4.1 24.6
21:40 1011 29.85 840 24.81 -0.1 31.8 75 -4 24.9
21:45 1011 29.85 840 24.81 -0.2 31.7 75 -4.1 24.7
21:50 1011 29.85 840 24.81 -0.1 31.8 73 -4.4 24.2
21:55 1011 29.85 840 24.81 0 32 70 -4.9 23.3
22:00 1011 29.85 840 24.81 0.4 32.7 69 -4.7 23.6
22:05 1011 29.85 840 24.81 0.4 32.7 70 -4.4 24.1
22:10 1011 29.85 840 24.81 0.3 32.6 70 -4.5 23.9
22:15 1011 29.85 840 24.81 0.4 32.6 71 -4.4 24.1
22:20 1011 29.85 840 24.81 0.3 32.5 71 -4.3 24.3
22:25 1011 29.85 840 24.81 0.2 32.4 72 -4.3 24.3
22:30 1011 29.85 840 24.81 0.2 32.3 72 -4.3 24.3
22:35 1011 29.85 840 24.81 0.3 32.5 72 -4.2 24.5
22:40 1010 29.83 840 24.81 0.3 32.6 73 -4 24.8
22:45 1010 29.83 840 24.81 0.1 32.2 75 -3.9 25
22:50 1010 29.83 840 24.81 -0.3 31.5 77 -3.8 25.1
22:55 1010 29.83 840 24.81 -0.4 31.3 78 -3.8 25.2
23:00 1010 29.83 840 24.81 -0.6 30.9 79 -3.8 25.1
23:05 1010 29.83 840 24.81 -0.8 30.5 80 -3.9 25
23:10 1010 29.83 840 24.81 -0.8 30.6 79 -4 24.9
23:15 1010 29.83 840 24.81 -0.7 30.7 78 -4 24.7
23:20 1010 29.83 840 24.81 -0.6 30.8 78 -4 24.8
23:25 1010 29.83 839 24.78 -0.7 30.7 79 -4 24.9
23:30 1010 29.83 839 24.78 -0.8 30.6 79 -4 24.7
23:35 1010 29.83 839 24.78 -0.6 30.9 77 -4.1 24.6
23:40 1010 29.83 839 24.78 -0.5 31 74 -4.6 23.7
23:45 1010 29.83 839 24.78 -0.6 30.9 75 -4.5 24
23:50 1010 29.83 839 24.78 -0.6 30.9 75 -4.6 23.8
23:55 1010 29.83 839 24.78 -0.7 30.7 74 -4.7 23.5
24:00 1010 29.83 839 24.78 -0.6 30.9 73 -4.8 23.3